createdAt,value
2023-02-23T00:01:55.571Z,2.05
2023-02-23T00:04:24.005Z,1.65
2023-02-23T00:06:54.742Z,1.65
2023-02-23T00:09:24.907Z,1.30
2023-02-23T00:11:57.333Z,1.77
2023-02-23T00:14:31.275Z,1.95
2023-02-23T00:16:59.983Z,1.77
2023-02-23T00:19:27.417Z,2.08
2023-02-23T00:21:54.683Z,1.90
2023-02-23T00:24:22.139Z,1.90
2023-02-23T00:26:51.670Z,1.85
2023-02-23T00:29:23.851Z,2.95
2023-02-23T00:31:51.906Z,1.95
2023-02-23T00:34:24.003Z,1.83
2023-02-23T00:36:55.429Z,1.50
2023-02-23T00:39:26.778Z,1.60
2023-02-23T00:41:55.336Z,2.47
2023-02-23T00:44:24.055Z,1.70
2023-02-23T00:46:52.264Z,1.67
2023-02-23T00:49:22.378Z,1.90
2023-02-23T00:51:49.892Z,1.83
2023-02-23T00:54:18.532Z,2.25
2023-02-23T00:56:46.794Z,1.80
2023-02-23T00:59:14.635Z,1.48
2023-02-23T01:01:42.309Z,1.75
2023-02-23T01:04:10.859Z,1.73
2023-02-23T01:06:39.055Z,1.60
2023-02-23T01:09:16.206Z,1.80
2023-02-23T01:11:46.795Z,2.17
2023-02-23T01:14:13.933Z,2.00
2023-02-23T01:16:40.854Z,2.00
2023-02-23T01:19:08.246Z,3.53
2023-02-23T01:21:42.490Z,2.10
2023-02-23T01:24:10.044Z,2.15
2023-02-23T01:26:39.778Z,1.90
2023-02-23T01:29:15.313Z,2.38
2023-02-23T01:31:45.872Z,2.10
2023-02-23T01:34:14.378Z,1.90
2023-02-23T01:36:43.624Z,2.15
2023-02-23T01:39:19.231Z,2.00
2023-02-23T01:41:46.246Z,2.38
2023-02-23T01:44:13.421Z,2.20
2023-02-23T01:46:43.995Z,2.33
2023-02-23T01:49:16.456Z,1.80
2023-02-23T01:51:59.638Z,2.05
2023-02-23T01:54:32.252Z,2.80
2023-02-23T01:57:02.699Z,2.40
2023-02-23T01:59:43.311Z,2.25
2023-02-23T02:02:11.062Z,1.95
2023-02-23T02:04:46.507Z,2.15
2023-02-23T02:07:27.117Z,2.10
2023-02-23T02:10:10.900Z,3.00
2023-02-23T02:12:44.262Z,2.25
2023-02-23T02:15:17.551Z,2.22
2023-02-23T02:18:03.623Z,2.08
2023-02-23T02:21:04.670Z,1.63
2023-02-23T02:23:36.646Z,1.95
2023-02-23T02:26:22.514Z,2.38
2023-02-23T02:29:17.100Z,1.80
2023-02-23T02:32:04.199Z,1.95
2023-02-23T02:35:07.524Z,2.47
2023-02-23T02:37:56.899Z,2.00
2023-02-23T02:40:55.704Z,2.08
2023-02-23T02:43:51.035Z,2.08
2023-02-23T02:46:25.191Z,2.03
2023-02-23T02:49:03.500Z,2.10
2023-02-23T02:51:46.210Z,2.17
2023-02-23T02:54:31.654Z,3.08
2023-02-23T02:57:02.084Z,2.13
2023-02-23T02:59:47.329Z,2.25
2023-02-23T03:02:37.174Z,1.98
2023-02-23T03:05:33.188Z,2.17
2023-02-23T03:08:30.785Z,2.28
2023-02-23T03:11:29.136Z,2.03
2023-02-23T03:14:14.575Z,2.85
2023-02-23T03:17:15.166Z,2.25
2023-02-23T03:20:13.339Z,3.17
2023-02-23T03:23:14.632Z,2.25
2023-02-23T03:26:23.203Z,2.00
2023-02-23T03:29:32.788Z,2.47
2023-02-23T03:32:23.897Z,2.28
2023-02-23T03:35:27.903Z,3.25
2023-02-23T03:38:32.315Z,1.92
2023-02-23T03:41:20.212Z,2.40
2023-02-23T03:44:12.232Z,2.10
2023-02-23T03:46:59.025Z,2.40
2023-02-23T03:49:48.681Z,1.70
2023-02-23T03:52:39.861Z,2.40
2023-02-23T03:55:51.063Z,2.25
2023-02-23T03:58:42.851Z,2.50
2023-02-23T04:01:30.369Z,3.35
2023-02-23T04:04:18.118Z,1.77
2023-02-23T04:07:05.702Z,2.45
2023-02-23T04:09:51.338Z,2.10
2023-02-23T04:12:42.073Z,1.80
2023-02-23T04:15:16.162Z,2.97
2023-02-23T04:17:44.173Z,1.65
2023-02-23T04:20:12.548Z,2.97
2023-02-23T04:22:39.575Z,1.80
2023-02-23T04:25:09.006Z,1.90
2023-02-23T04:27:36.873Z,1.58
2023-02-23T04:30:04.808Z,2.33
2023-02-23T04:32:32.252Z,2.10
2023-02-23T04:34:59.247Z,1.80
2023-02-23T04:37:26.185Z,1.85
2023-02-23T04:39:53.073Z,1.67
2023-02-23T04:42:20.394Z,2.08
2023-02-23T04:44:47.500Z,2.42
2023-02-23T04:47:17.518Z,1.63
2023-02-23T04:49:44.717Z,2.22
2023-02-23T04:52:11.770Z,1.80
2023-02-23T04:54:39.480Z,2.28
2023-02-23T04:57:06.843Z,2.20
2023-02-23T04:59:33.989Z,2.95
2023-02-23T05:02:01.041Z,1.77
2023-02-23T05:04:28.083Z,1.80
2023-02-23T05:06:55.090Z,2.47
2023-02-23T05:09:22.007Z,2.05
2023-02-23T05:11:48.885Z,1.88
2023-02-23T05:14:15.831Z,2.65
2023-02-23T05:16:43.693Z,2.03
2023-02-23T05:19:10.607Z,2.00
2023-02-23T05:21:38.700Z,2.45
2023-02-23T05:24:06.291Z,2.05
2023-02-23T05:26:33.282Z,1.55
2023-02-23T05:29:00.256Z,1.95
2023-02-23T05:31:28.033Z,1.50
2023-02-23T05:33:55.002Z,1.60
2023-02-23T05:36:22.366Z,1.85
2023-02-23T05:38:49.409Z,1.83
2023-02-23T05:41:19.561Z,1.70
2023-02-23T05:43:47.442Z,1.30
2023-02-23T05:46:20.240Z,1.90
2023-02-23T05:48:47.462Z,2.72
2023-02-23T05:51:16.317Z,2.00
2023-02-23T05:53:43.794Z,2.65
2023-02-23T05:56:14.239Z,1.75
2023-02-23T05:58:41.202Z,1.60
2023-02-23T06:01:08.098Z,1.95
2023-02-23T06:03:35.760Z,2.20
2023-02-23T06:06:03.211Z,2.50
2023-02-23T06:08:30.112Z,1.73
2023-02-23T06:10:57.035Z,2.10
2023-02-23T06:13:27.031Z,1.92
2023-02-23T06:15:54.272Z,1.88
2023-02-23T06:18:22.286Z,2.20
2023-02-23T06:20:49.249Z,2.70
2023-02-23T06:23:16.145Z,1.67
2023-02-23T06:25:44.459Z,2.13
2023-02-23T06:28:11.721Z,2.38
2023-02-23T06:30:39.588Z,2.35
2023-02-23T06:33:07.309Z,1.77
2023-02-23T06:35:35.154Z,1.88
2023-02-23T06:38:02.145Z,2.38
2023-02-23T06:40:29.336Z,1.80
2023-02-23T06:42:56.299Z,1.70
2023-02-23T06:45:23.543Z,2.40
2023-02-23T06:47:50.486Z,2.25
2023-02-23T06:50:18.050Z,1.80
2023-02-23T06:52:46.120Z,1.60
2023-02-23T06:55:15.979Z,2.25
2023-02-23T06:57:44.319Z,1.77
2023-02-23T07:00:15.195Z,2.10
2023-02-23T07:02:42.405Z,2.17
2023-02-23T07:05:09.904Z,1.92
2023-02-23T07:07:37.015Z,1.98
2023-02-23T07:10:05.934Z,1.85
2023-02-23T07:12:33.062Z,1.98
2023-02-23T07:15:00.033Z,2.75
2023-02-23T07:17:27.047Z,2.10
2023-02-23T07:19:54.043Z,1.83
2023-02-23T07:22:22.288Z,2.00
2023-02-23T07:24:49.437Z,1.80
2023-02-23T07:27:16.446Z,1.60
2023-02-23T07:29:43.434Z,1.73
2023-02-23T07:32:10.730Z,1.65
2023-02-23T07:34:37.904Z,1.60
2023-02-23T07:37:04.851Z,1.50
2023-02-23T07:39:31.893Z,1.42
2023-02-23T07:41:58.863Z,1.48
2023-02-23T07:44:25.795Z,1.42
2023-02-23T07:46:53.344Z,1.75
2023-02-23T07:49:20.372Z,1.27
2023-02-23T07:51:47.498Z,1.63
2023-02-23T07:54:15.138Z,1.45
2023-02-23T07:56:42.390Z,1.17
2023-02-23T07:59:09.297Z,1.25
2023-02-23T08:01:36.218Z,1.10
2023-02-23T08:04:04.348Z,1.23
2023-02-23T08:06:32.297Z,1.55
2023-02-23T08:09:01.148Z,0.95
2023-02-23T08:11:30.745Z,1.40
2023-02-23T08:14:00.176Z,1.55
2023-02-23T08:16:28.947Z,1.50
2023-02-23T08:19:00.197Z,1.50
2023-02-23T08:21:29.574Z,2.05
2023-02-23T08:23:58.259Z,1.30
2023-02-23T08:26:25.767Z,1.20
2023-02-23T08:28:54.209Z,1.50
2023-02-23T08:31:25.122Z,3.03
2023-02-23T08:33:53.313Z,1.60
2023-02-23T08:36:22.941Z,1.25
2023-02-23T08:38:50.496Z,1.30
2023-02-23T08:41:18.221Z,1.00
2023-02-23T08:43:45.278Z,1.10
2023-02-23T08:46:12.285Z,1.33
2023-02-23T08:48:40.679Z,1.42
2023-02-23T08:51:08.984Z,1.40
2023-02-23T08:53:36.148Z,1.45
2023-02-23T08:56:09.082Z,1.00
2023-02-23T08:58:37.169Z,1.13
2023-02-23T09:01:05.341Z,1.40
2023-02-23T09:03:33.578Z,1.17
2023-02-23T09:06:08.762Z,1.40
2023-02-23T09:08:35.949Z,1.65
2023-02-23T09:11:03.075Z,1.23
2023-02-23T09:13:30.008Z,1.60
2023-02-23T09:15:57.042Z,1.10
2023-02-23T09:18:24.453Z,1.27
2023-02-23T09:20:51.579Z,1.40
2023-02-23T09:23:18.489Z,1.20
2023-02-23T09:25:45.913Z,1.38
2023-02-23T09:28:15.188Z,1.23
2023-02-23T09:30:45.741Z,1.00
2023-02-23T09:33:13.445Z,1.25
2023-02-23T09:35:41.524Z,1.25
2023-02-23T09:38:08.956Z,0.90
2023-02-23T09:40:52.138Z,1.05
2023-02-23T09:43:45.072Z,0.80
2023-02-23T09:46:32.876Z,1.25
2023-02-23T09:49:03.030Z,1.23
2023-02-23T09:51:34.653Z,1.30
2023-02-23T09:54:05.762Z,0.90
2023-02-23T09:56:40.948Z,1.00
2023-02-23T09:59:16.745Z,1.23
2023-02-23T10:02:14.776Z,0.80
2023-02-23T10:04:42.647Z,0.80
2023-02-23T10:07:37.290Z,1.05
2023-02-23T10:10:21.794Z,1.30
2023-02-23T10:13:13.535Z,0.95
2023-02-23T10:15:57.824Z,1.15
2023-02-23T10:18:50.338Z,1.25
2023-02-23T10:21:31.639Z,0.90
2023-02-23T10:24:14.334Z,0.80
2023-02-23T10:26:49.750Z,0.73
2023-02-23T10:29:51.642Z,0.90
2023-02-23T10:32:40.382Z,0.93
2023-02-23T10:35:16.270Z,0.95
2023-02-23T10:37:43.607Z,1.02
2023-02-23T10:40:21.517Z,1.10
2023-02-23T10:42:48.445Z,0.75
2023-02-23T10:45:25.587Z,0.90
2023-02-23T10:48:21.742Z,0.90
2023-02-23T10:50:55.348Z,0.85
2023-02-23T10:53:26.659Z,0.80
2023-02-23T10:56:18.571Z,0.60
2023-02-23T10:58:47.086Z,1.17
2023-02-23T11:01:41.758Z,0.85
2023-02-23T11:04:26.219Z,0.75
2023-02-23T11:07:18.502Z,0.88
2023-02-23T11:09:47.877Z,0.95
2023-02-23T11:12:25.512Z,0.95
2023-02-23T11:14:59.260Z,0.70
2023-02-23T11:17:35.116Z,0.70
2023-02-23T11:20:03.982Z,0.63
2023-02-23T11:22:36.999Z,0.80
2023-02-23T11:25:17.618Z,0.93
2023-02-23T11:27:57.093Z,1.10
2023-02-23T11:30:34.397Z,0.90
2023-02-23T11:33:10.706Z,0.80
2023-02-23T11:35:38.826Z,0.70
2023-02-23T11:38:35.296Z,0.90
2023-02-23T11:41:17.814Z,0.68
2023-02-23T11:43:50.488Z,1.52
2023-02-23T11:46:21.798Z,1.08
2023-02-23T11:48:55.200Z,1.15
2023-02-23T11:51:27.483Z,0.98
2023-02-23T11:53:54.922Z,0.60
2023-02-23T11:56:25.673Z,0.40
2023-02-23T11:59:20.600Z,0.90
2023-02-23T12:01:51.232Z,1.70
2023-02-23T12:04:26.459Z,0.90
2023-02-23T12:07:23.847Z,0.60
2023-02-23T12:10:02.319Z,0.80
2023-02-23T12:12:31.671Z,0.77
2023-02-23T12:15:18.719Z,0.68
2023-02-23T12:17:53.812Z,0.80
2023-02-23T12:20:31.922Z,0.80
2023-02-23T12:23:07.935Z,1.00
2023-02-23T12:25:54.302Z,0.70
2023-02-23T12:28:37.148Z,0.60
2023-02-23T12:31:27.259Z,0.82
2023-02-23T12:34:02.696Z,1.02
2023-02-23T12:36:45.102Z,0.70
2023-02-23T12:39:36.245Z,0.70
2023-02-23T12:42:18.207Z,1.45
2023-02-23T12:44:53.268Z,0.98
2023-02-23T12:47:41.703Z,0.57
2023-02-23T12:50:23.328Z,0.80
2023-02-23T12:52:55.847Z,0.90
2023-02-23T12:55:48.576Z,0.63
2023-02-23T12:58:33.371Z,0.75
2023-02-23T13:01:04.929Z,0.60
2023-02-23T13:03:49.101Z,1.35
2023-02-23T13:06:39.943Z,0.90
2023-02-23T13:09:30.670Z,1.08
2023-02-23T13:12:00.699Z,1.30
2023-02-23T13:14:40.388Z,1.15
2023-02-23T13:17:51.358Z,1.10
2023-02-23T13:20:21.536Z,1.15
2023-02-23T13:22:59.477Z,1.20
2023-02-23T13:25:40.094Z,1.13
2023-02-23T13:28:14.109Z,1.00
2023-02-23T13:30:47.073Z,0.77
2023-02-23T13:33:27.525Z,0.75
2023-02-23T13:36:00.321Z,0.75
2023-02-23T13:38:37.177Z,0.80
2023-02-23T13:41:07.311Z,0.60
2023-02-23T13:43:41.556Z,0.52
2023-02-23T13:46:16.973Z,0.40
2023-02-23T13:49:00.444Z,0.50
2023-02-23T13:51:32.748Z,0.60
2023-02-23T13:54:16.173Z,0.60
2023-02-23T13:56:49.021Z,0.50
2023-02-23T13:59:22.570Z,0.47
2023-02-23T14:01:54.529Z,0.50
2023-02-23T14:04:35.048Z,0.70
2023-02-23T14:07:18.810Z,0.68
2023-02-23T14:10:23.174Z,0.45
2023-02-23T14:13:08.707Z,0.75
2023-02-23T14:15:35.574Z,0.60
2023-02-23T14:18:18.765Z,0.63
2023-02-23T14:21:09.611Z,0.50
2023-02-23T14:23:54.140Z,0.40
2023-02-23T14:26:30.297Z,1.50
2023-02-23T14:29:16.987Z,0.70
2023-02-23T14:32:01.448Z,0.50
2023-02-23T14:34:46.663Z,0.60
2023-02-23T14:37:40.420Z,0.60
2023-02-23T14:40:16.041Z,0.80
2023-02-23T14:42:50.641Z,0.85
2023-02-23T14:45:17.522Z,0.88
2023-02-23T14:47:47.544Z,0.60
2023-02-23T14:50:35.739Z,0.60
2023-02-23T14:53:04.513Z,0.68
2023-02-23T14:55:36.590Z,0.70
2023-02-23T14:58:19.079Z,0.70
2023-02-23T15:00:46.071Z,0.63
2023-02-23T15:03:13.777Z,0.50
2023-02-23T15:05:44.919Z,0.70
2023-02-23T15:08:21.293Z,0.60
2023-02-23T15:10:51.470Z,0.50
2023-02-23T15:13:29.456Z,0.50
2023-02-23T15:16:06.829Z,0.63
2023-02-23T15:18:38.929Z,0.43
2023-02-23T15:21:16.677Z,0.55
2023-02-23T15:23:49.343Z,0.57
2023-02-23T15:26:32.124Z,0.40
2023-02-23T15:29:10.846Z,0.60
2023-02-23T15:31:41.216Z,0.60
2023-02-23T15:34:11.235Z,0.50
2023-02-23T15:36:41.344Z,0.60
2023-02-23T15:39:13.714Z,0.50
2023-02-23T15:41:42.752Z,0.60
2023-02-23T15:44:12.718Z,0.50
2023-02-23T15:46:41.572Z,0.40
2023-02-23T15:49:14.399Z,0.50
2023-02-23T15:51:49.558Z,0.65
2023-02-23T15:54:27.042Z,0.40
2023-02-23T15:57:06.481Z,0.50
2023-02-23T15:59:39.343Z,0.40
2023-02-23T16:02:32.364Z,0.50
2023-02-23T16:05:20.922Z,0.40
2023-02-23T16:07:48.055Z,0.30
2023-02-23T16:10:24.642Z,0.40
2023-02-23T16:12:53.759Z,0.80
2023-02-23T16:15:33.124Z,0.80
2023-02-23T16:18:04.073Z,0.60
2023-02-23T16:20:57.792Z,0.50
2023-02-23T16:23:34.307Z,0.30
2023-02-23T16:26:12.517Z,0.40
2023-02-23T16:28:45.425Z,0.30
2023-02-23T16:31:14.188Z,0.30
2023-02-23T16:33:51.115Z,0.40
2023-02-23T16:36:24.761Z,0.82
2023-02-23T16:39:07.231Z,0.50
2023-02-23T16:41:35.248Z,0.35
2023-02-23T16:44:06.977Z,0.40
2023-02-23T16:47:13.222Z,0.40
2023-02-23T16:49:40.182Z,0.63
2023-02-23T16:52:17.925Z,0.50
2023-02-23T16:54:48.467Z,0.70
2023-02-23T16:57:25.667Z,0.40
2023-02-23T16:59:54.414Z,1.30
2023-02-23T17:02:25.459Z,0.30
2023-02-23T17:04:52.895Z,0.40
2023-02-23T17:07:23.781Z,0.32
2023-02-23T17:09:51.522Z,0.52
2023-02-23T17:12:21.897Z,0.40
2023-02-23T17:14:49.599Z,0.38
2023-02-23T17:17:18.863Z,0.43
2023-02-23T17:19:46.808Z,0.30
2023-02-23T17:22:14.364Z,0.47
2023-02-23T17:24:42.995Z,0.30
2023-02-23T17:27:10.382Z,0.30
2023-02-23T17:29:37.427Z,0.40
2023-02-23T17:32:04.729Z,0.50
2023-02-23T17:34:31.906Z,0.20
2023-02-23T17:36:58.882Z,0.50
2023-02-23T17:39:28.166Z,0.80
2023-02-23T17:41:55.887Z,0.90
2023-02-23T17:44:23.299Z,0.60
2023-02-23T17:46:50.885Z,0.30
2023-02-23T17:49:18.008Z,0.20
2023-02-23T17:51:44.993Z,0.32
2023-02-23T17:54:11.887Z,0.20
2023-02-23T17:56:38.860Z,0.10
2023-02-23T17:59:05.805Z,0.20
2023-02-23T18:01:32.836Z,0.10
2023-02-23T18:04:00.803Z,0.10
2023-02-23T18:06:28.069Z,0.20
2023-02-23T18:08:55.015Z,0.10
2023-02-23T18:11:22.229Z,0.10
2023-02-23T18:13:52.783Z,0.20
2023-02-23T18:16:20.439Z,0.30
2023-02-23T18:18:49.151Z,0.20
2023-02-23T18:21:19.765Z,0.20
2023-02-23T18:23:46.910Z,0.20
2023-02-23T18:26:17.303Z,0.20
2023-02-23T18:28:46.395Z,0.30
2023-02-23T18:31:21.910Z,0.10
2023-02-23T18:33:52.933Z,0.35
2023-02-23T18:36:23.268Z,0.38
2023-02-23T18:38:50.612Z,0.90
2023-02-23T18:41:18.124Z,0.80
2023-02-23T18:43:45.499Z,0.47
2023-02-23T18:46:13.935Z,0.20
2023-02-23T18:48:41.202Z,0.30
2023-02-23T18:51:12.410Z,0.20
2023-02-23T18:53:39.364Z,0.10
2023-02-23T18:56:08.089Z,0.20
2023-02-23T18:58:35.643Z,0.68
2023-02-23T19:01:02.792Z,0.30
2023-02-23T19:03:29.893Z,0.30
2023-02-23T19:05:59.215Z,0.40
2023-02-23T19:08:26.191Z,0.30
2023-02-23T19:10:53.223Z,0.40
2023-02-23T19:13:22.319Z,0.40
2023-02-23T19:15:50.025Z,0.50
2023-02-23T19:18:17.111Z,0.30
2023-02-23T19:20:44.021Z,0.63
2023-02-23T19:23:13.220Z,0.30
2023-02-23T19:25:40.461Z,0.50
2023-02-23T19:28:09.396Z,0.40
2023-02-23T19:30:36.500Z,0.40
2023-02-23T19:33:03.941Z,0.40
2023-02-23T19:35:30.961Z,0.52
2023-02-23T19:37:58.950Z,0.47
2023-02-23T19:40:28.548Z,0.43
2023-02-23T19:42:55.526Z,0.90
2023-02-23T19:45:25.094Z,0.30
2023-02-23T19:47:53.246Z,0.30
2023-02-23T19:50:20.997Z,0.73
2023-02-23T19:52:48.656Z,0.45
2023-02-23T19:55:15.647Z,0.65
2023-02-23T19:57:42.983Z,0.50
2023-02-23T20:00:13.541Z,0.85
2023-02-23T20:02:45.679Z,0.65
2023-02-23T20:05:14.948Z,0.98
2023-02-23T20:07:42.680Z,0.60
2023-02-23T20:10:13.955Z,0.80
2023-02-23T20:12:41.024Z,0.60
2023-02-23T20:15:08.899Z,0.60
2023-02-23T20:17:36.437Z,0.60
2023-02-23T20:20:09.591Z,0.60
2023-02-23T20:22:36.582Z,0.73
2023-02-23T20:25:06.021Z,0.55
2023-02-23T20:27:35.163Z,0.95
2023-02-23T20:30:02.804Z,0.60
2023-02-23T20:32:29.813Z,0.65
2023-02-23T20:35:00.663Z,0.63
2023-02-23T20:37:28.739Z,0.70
2023-02-23T20:39:55.630Z,0.63
2023-02-23T20:42:22.622Z,0.50
2023-02-23T20:44:49.637Z,0.65
2023-02-23T20:47:16.594Z,0.60
2023-02-23T20:49:43.520Z,0.77
2023-02-23T20:52:12.635Z,0.90
2023-02-23T20:54:40.039Z,0.60
2023-02-23T20:57:09.893Z,0.65
2023-02-23T20:59:37.215Z,0.77
2023-02-23T21:02:06.431Z,0.90
2023-02-23T21:04:35.967Z,0.60
2023-02-23T21:07:05.026Z,0.90
2023-02-23T21:09:32.930Z,1.05
2023-02-23T21:12:00.050Z,0.90
2023-02-23T21:14:27.043Z,0.82
2023-02-23T21:16:53.948Z,0.60
2023-02-23T21:19:23.909Z,0.65
2023-02-23T21:21:57.971Z,0.70
2023-02-23T21:24:25.882Z,0.85
2023-02-23T21:26:52.814Z,0.80
2023-02-23T21:29:24.112Z,0.52
2023-02-23T21:31:51.402Z,1.10
2023-02-23T21:34:21.133Z,0.80
2023-02-23T21:36:48.457Z,0.77
2023-02-23T21:39:15.406Z,0.82
2023-02-23T21:41:42.308Z,0.60
2023-02-23T21:44:09.365Z,0.65
2023-02-23T21:46:36.413Z,0.50
2023-02-23T21:49:10.009Z,0.77
2023-02-23T21:51:37.462Z,0.80
2023-02-23T21:54:04.772Z,0.70
2023-02-23T21:56:32.850Z,0.73
2023-02-23T21:59:00.781Z,1.13
2023-02-23T22:01:35.464Z,0.70
2023-02-23T22:04:03.759Z,0.70
2023-02-23T22:06:38.449Z,0.43
2023-02-23T22:09:07.017Z,0.80
2023-02-23T22:11:36.409Z,1.02
2023-02-23T22:14:06.658Z,0.80
2023-02-23T22:16:36.744Z,0.68
2023-02-23T22:19:05.066Z,0.50
2023-02-23T22:21:34.969Z,0.40
2023-02-23T22:24:05.492Z,0.77
2023-02-23T22:26:38.040Z,0.60
2023-02-23T22:29:06.218Z,0.50
2023-02-23T22:31:34.167Z,0.80
2023-02-23T22:34:01.269Z,1.25
2023-02-23T22:36:29.191Z,1.15
2023-02-23T22:38:59.678Z,0.77
2023-02-23T22:41:30.624Z,0.85
2023-02-23T22:43:58.101Z,0.65
2023-02-23T22:46:26.008Z,0.77
2023-02-23T22:48:53.569Z,0.82
2023-02-23T22:51:21.074Z,0.90
2023-02-23T22:53:48.353Z,0.95
2023-02-23T22:56:15.365Z,1.13
2023-02-23T22:58:42.423Z,1.00
2023-02-23T23:01:11.933Z,0.90
2023-02-23T23:03:45.845Z,0.82
2023-02-23T23:06:22.814Z,1.30
2023-02-23T23:08:54.226Z,1.15
2023-02-23T23:11:25.953Z,1.25
2023-02-23T23:14:00.524Z,1.40
2023-02-23T23:16:32.462Z,1.58
2023-02-23T23:19:04.976Z,1.17
2023-02-23T23:21:33.893Z,1.45
2023-02-23T23:24:10.159Z,1.05
2023-02-23T23:26:41.151Z,1.40
2023-02-23T23:29:11.417Z,1.73
2023-02-23T23:31:39.950Z,1.90
2023-02-23T23:34:10.320Z,1.60
2023-02-23T23:36:43.294Z,1.15
2023-02-23T23:39:16.323Z,1.70
2023-02-23T23:41:46.217Z,1.45
2023-02-23T23:44:13.540Z,0.95
2023-02-23T23:46:43.156Z,1.20
2023-02-23T23:49:18.433Z,1.25
2023-02-23T23:51:50.879Z,2.05
2023-02-23T23:54:21.727Z,1.30
2023-02-23T23:56:49.739Z,0.98
2023-02-23T23:59:21.429Z,0.90
